createdAt,value
2022-11-20T00:01:42.356Z,12.00
2022-11-20T00:04:13.395Z,12.18
2022-11-20T00:06:42.347Z,12.40
2022-11-20T00:09:13.004Z,11.70
2022-11-20T00:11:41.858Z,12.20
2022-11-20T00:14:12.853Z,11.70
2022-11-20T00:16:41.829Z,12.73
2022-11-20T00:19:10.738Z,12.45
2022-11-20T00:21:39.631Z,12.80
2022-11-20T00:24:10.979Z,11.80
2022-11-20T00:26:40.287Z,12.65
2022-11-20T00:29:11.985Z,12.30
2022-11-20T00:31:40.886Z,11.73
2022-11-20T00:34:09.809Z,12.38
2022-11-20T00:36:38.742Z,13.05
2022-11-20T00:39:07.669Z,12.13
2022-11-20T00:41:36.619Z,11.82
2022-11-20T00:44:05.627Z,13.93
2022-11-20T00:46:34.640Z,10.40
2022-11-20T00:49:03.506Z,14.68
2022-11-20T00:51:32.462Z,9.63
2022-11-20T00:54:02.121Z,9.85
2022-11-20T00:56:31.254Z,10.98
2022-11-20T00:59:03.397Z,10.30
2022-11-20T01:01:32.627Z,12.75
2022-11-20T01:04:02.943Z,12.10
2022-11-20T01:06:34.706Z,12.18
2022-11-20T01:09:06.222Z,11.38
2022-11-20T01:11:38.371Z,12.95
2022-11-20T01:14:09.542Z,15.60
2022-11-20T01:16:41.534Z,13.60
2022-11-20T01:19:17.680Z,11.82
2022-11-20T01:21:50.103Z,11.70
2022-11-20T01:24:20.991Z,12.45
2022-11-20T01:26:52.177Z,12.98
2022-11-20T01:29:26.464Z,13.35
2022-11-20T01:31:59.190Z,12.25
2022-11-20T01:34:28.190Z,18.88
2022-11-20T01:36:57.163Z,9.95
2022-11-20T01:39:28.536Z,9.95
2022-11-20T01:42:16.697Z,10.77
2022-11-20T01:45:01.169Z,9.70
2022-11-20T01:47:41.846Z,16.23
2022-11-20T01:50:25.070Z,9.82
2022-11-20T01:53:00.395Z,8.23
2022-11-20T01:55:33.426Z,8.30
2022-11-20T01:58:03.765Z,12.32
2022-11-20T02:00:32.986Z,7.68
2022-11-20T02:03:09.036Z,8.27
2022-11-20T02:06:05.471Z,8.52
2022-11-20T02:08:36.388Z,7.40
2022-11-20T02:11:05.303Z,9.93
2022-11-20T02:13:46.577Z,13.40
2022-11-20T02:16:25.129Z,6.72
2022-11-20T02:18:56.190Z,7.97
2022-11-20T02:21:30.952Z,11.73
2022-11-20T02:24:04.669Z,9.43
2022-11-20T02:26:37.768Z,10.65
2022-11-20T02:29:06.725Z,8.70
2022-11-20T02:31:42.396Z,6.20
2022-11-20T02:34:11.985Z,7.32
2022-11-20T02:36:43.708Z,7.03
2022-11-20T02:39:14.350Z,6.95
2022-11-20T02:41:43.282Z,6.70
2022-11-20T02:44:12.232Z,7.55
2022-11-20T02:46:41.102Z,8.40
2022-11-20T02:49:10.030Z,7.13
2022-11-20T02:51:39.003Z,7.03
2022-11-20T02:54:07.892Z,7.47
2022-11-20T02:56:36.907Z,9.93
2022-11-20T02:59:06.737Z,7.70
2022-11-20T03:01:35.695Z,7.50
2022-11-20T03:04:05.034Z,7.40
2022-11-20T03:06:34.273Z,7.72
2022-11-20T03:09:03.452Z,7.55
2022-11-20T03:11:32.345Z,7.47
2022-11-20T03:14:05.412Z,7.03
2022-11-20T03:16:35.022Z,7.13
2022-11-20T03:19:03.955Z,6.60
2022-11-20T03:21:32.904Z,7.70
2022-11-20T03:24:01.828Z,6.68
2022-11-20T03:26:30.995Z,6.82
2022-11-20T03:29:02.349Z,5.43
2022-11-20T03:31:34.217Z,6.63
2022-11-20T03:34:03.703Z,6.32
2022-11-20T03:36:33.234Z,6.68
2022-11-20T03:39:02.520Z,7.13
2022-11-20T03:41:33.395Z,6.53
2022-11-20T03:44:04.789Z,6.05
2022-11-20T03:46:34.078Z,5.88
2022-11-20T03:49:03.370Z,4.80
2022-11-20T03:51:34.540Z,5.90
2022-11-20T03:54:06.014Z,4.68
2022-11-20T03:56:37.483Z,6.18
2022-11-20T03:59:06.968Z,4.85
2022-11-20T04:01:39.424Z,5.03
2022-11-20T04:04:08.487Z,5.28
2022-11-20T04:06:39.962Z,4.78
2022-11-20T04:09:09.366Z,5.22
2022-11-20T04:11:41.967Z,5.43
2022-11-20T04:14:17.090Z,6.32
2022-11-20T04:16:46.148Z,4.88
2022-11-20T04:19:17.554Z,6.53
2022-11-20T04:21:47.405Z,4.13
2022-11-20T04:24:16.334Z,4.75
2022-11-20T04:26:45.288Z,5.20
2022-11-20T04:29:15.196Z,4.70
2022-11-20T04:31:44.117Z,4.22
2022-11-20T04:34:15.031Z,4.88
2022-11-20T04:36:44.498Z,5.65
2022-11-20T04:39:17.622Z,4.75
2022-11-20T04:41:46.725Z,4.75
2022-11-20T04:44:15.619Z,5.13
2022-11-20T04:46:45.118Z,5.03
2022-11-20T04:49:14.713Z,4.78
2022-11-20T04:51:43.774Z,3.85
2022-11-20T04:54:14.596Z,4.70
2022-11-20T04:56:44.108Z,4.82
2022-11-20T04:59:13.433Z,4.38
2022-11-20T05:01:42.381Z,4.38
2022-11-20T05:04:11.293Z,4.22
2022-11-20T05:06:40.181Z,4.75
2022-11-20T05:09:09.136Z,4.18
2022-11-20T05:11:38.133Z,4.90
2022-11-20T05:14:07.073Z,4.43
2022-11-20T05:16:38.142Z,4.57
2022-11-20T05:19:07.081Z,4.40
2022-11-20T05:21:36.046Z,5.55
2022-11-20T05:24:05.155Z,4.57
2022-11-20T05:26:34.347Z,5.20
2022-11-20T05:29:03.246Z,7.35
2022-11-20T05:31:32.094Z,4.97
2022-11-20T05:34:01.134Z,4.32
2022-11-20T05:36:30.058Z,4.40
2022-11-20T05:39:01.742Z,4.45
2022-11-20T05:41:31.534Z,3.90
2022-11-20T05:44:01.610Z,4.68
2022-11-20T05:46:30.674Z,5.22
2022-11-20T05:49:00.433Z,10.93
2022-11-20T05:51:30.030Z,9.60
2022-11-20T05:54:02.036Z,4.30
2022-11-20T05:56:30.976Z,3.05
2022-11-20T05:59:00.082Z,3.17
2022-11-20T06:01:29.005Z,3.67
2022-11-20T06:03:58.144Z,3.95
2022-11-20T06:06:28.302Z,3.67
2022-11-20T06:08:57.912Z,3.65
2022-11-20T06:11:27.182Z,3.95
2022-11-20T06:13:56.311Z,4.15
2022-11-20T06:16:25.293Z,5.10
2022-11-20T06:18:54.246Z,3.30
2022-11-20T06:21:24.636Z,4.50
2022-11-20T06:23:55.499Z,4.18
2022-11-20T06:26:30.817Z,3.92
2022-11-20T06:28:59.924Z,4.25
2022-11-20T06:31:29.281Z,4.03
2022-11-20T06:33:58.162Z,4.70
2022-11-20T06:36:27.037Z,3.80
2022-11-20T06:38:55.996Z,4.35
2022-11-20T06:41:25.329Z,3.92
2022-11-20T06:43:54.622Z,7.22
2022-11-20T06:46:23.788Z,7.85
2022-11-20T06:48:53.394Z,3.80
2022-11-20T06:51:23.444Z,4.25
2022-11-20T06:53:52.313Z,5.07
2022-11-20T06:56:21.437Z,4.18
2022-11-20T06:58:50.355Z,4.32
2022-11-20T07:01:19.705Z,3.85
2022-11-20T07:03:54.497Z,4.78
2022-11-20T07:06:23.565Z,3.97
2022-11-20T07:08:54.797Z,8.00
2022-11-20T07:11:23.721Z,4.00
2022-11-20T07:13:52.739Z,4.05
2022-11-20T07:16:22.213Z,4.47
2022-11-20T07:18:51.275Z,4.25
2022-11-20T07:21:20.292Z,4.55
2022-11-20T07:23:49.187Z,5.03
2022-11-20T07:26:18.142Z,4.50
2022-11-20T07:28:48.214Z,4.25
2022-11-20T07:31:19.278Z,4.57
2022-11-20T07:33:49.409Z,4.85
2022-11-20T07:36:18.369Z,3.92
2022-11-20T07:38:47.274Z,5.28
2022-11-20T07:41:16.098Z,4.47
2022-11-20T07:43:45.095Z,4.45
2022-11-20T07:46:14.058Z,5.03
2022-11-20T07:48:42.979Z,5.15
2022-11-20T07:51:11.847Z,3.75
2022-11-20T07:53:40.739Z,4.28
2022-11-20T07:56:09.869Z,3.97
2022-11-20T07:58:39.153Z,4.18
2022-11-20T08:01:09.759Z,3.67
2022-11-20T08:03:41.724Z,3.60
2022-11-20T08:06:11.421Z,3.97
2022-11-20T08:08:43.076Z,3.42
2022-11-20T08:11:30.535Z,3.72
2022-11-20T08:14:15.015Z,3.70
2022-11-20T08:16:48.976Z,3.63
2022-11-20T08:19:19.899Z,3.60
2022-11-20T08:21:49.233Z,3.53
2022-11-20T08:24:18.112Z,3.50
2022-11-20T08:26:47.319Z,5.60
2022-11-20T08:29:16.200Z,3.30
2022-11-20T08:31:45.166Z,2.92
2022-11-20T08:34:18.774Z,3.55
2022-11-20T08:36:48.250Z,2.90
2022-11-20T08:39:17.341Z,4.00
2022-11-20T08:41:46.225Z,3.58
2022-11-20T08:44:15.190Z,3.45
2022-11-20T08:46:45.751Z,3.22
2022-11-20T08:49:17.415Z,3.25
2022-11-20T08:51:47.189Z,5.70
2022-11-20T08:54:16.208Z,3.85
2022-11-20T08:56:45.032Z,3.30
2022-11-20T08:59:31.337Z,2.95
2022-11-20T09:02:02.807Z,3.03
2022-11-20T09:04:32.267Z,3.03
2022-11-20T09:07:03.248Z,3.55
2022-11-20T09:09:32.163Z,3.72
2022-11-20T09:12:01.054Z,3.90
2022-11-20T09:14:32.098Z,6.53
2022-11-20T09:17:01.073Z,2.65
2022-11-20T09:19:36.960Z,3.05
2022-11-20T09:22:05.980Z,3.17
2022-11-20T09:24:35.070Z,2.88
2022-11-20T09:27:07.883Z,3.47
2022-11-20T09:29:36.813Z,3.70
2022-11-20T09:32:05.826Z,3.83
2022-11-20T09:34:34.811Z,3.72
2022-11-20T09:37:06.385Z,2.78
2022-11-20T09:39:40.887Z,5.35
2022-11-20T09:42:21.944Z,2.92
2022-11-20T09:45:16.977Z,3.40
2022-11-20T09:48:15.170Z,3.83
2022-11-20T09:51:08.159Z,3.58
2022-11-20T09:53:43.134Z,3.30
2022-11-20T09:56:18.346Z,3.53
2022-11-20T09:59:02.023Z,4.35
2022-11-20T10:01:36.428Z,4.63
2022-11-20T10:04:16.277Z,5.10
2022-11-20T10:07:31.449Z,4.80
2022-11-20T10:09:59.550Z,4.43
2022-11-20T10:12:57.834Z,4.40
2022-11-20T10:15:45.289Z,4.63
2022-11-20T10:18:24.541Z,5.50
2022-11-20T10:21:02.363Z,5.72
2022-11-20T10:24:12.465Z,5.28
2022-11-20T10:27:09.031Z,8.40
2022-11-20T10:29:42.074Z,6.00
2022-11-20T10:32:16.145Z,4.73
2022-11-20T10:34:47.756Z,6.20
2022-11-20T10:37:27.276Z,4.55
2022-11-20T10:40:02.526Z,5.68
2022-11-20T10:42:45.238Z,4.70
2022-11-20T10:45:26.477Z,4.22
2022-11-20T10:48:00.737Z,4.82
2022-11-20T10:50:30.531Z,4.50
2022-11-20T10:53:16.200Z,4.88
2022-11-20T10:56:02.864Z,4.57
2022-11-20T10:58:46.794Z,4.43
2022-11-20T11:01:23.625Z,4.65
2022-11-20T11:03:57.577Z,4.82
2022-11-20T11:06:40.993Z,4.57
2022-11-20T11:09:18.171Z,5.28
2022-11-20T11:11:47.237Z,5.10
2022-11-20T11:14:18.205Z,6.50
2022-11-20T11:16:59.422Z,8.88
2022-11-20T11:19:28.474Z,8.00
2022-11-20T11:21:58.886Z,5.80
2022-11-20T11:24:44.439Z,6.22
2022-11-20T11:27:19.678Z,5.85
2022-11-20T11:29:49.203Z,5.50
2022-11-20T11:32:23.395Z,6.55
2022-11-20T11:35:09.199Z,5.90
2022-11-20T11:37:41.179Z,5.13
2022-11-20T11:40:23.739Z,5.65
2022-11-20T11:42:59.940Z,6.60
2022-11-20T11:45:29.833Z,6.20
2022-11-20T11:48:05.768Z,5.25
2022-11-20T11:50:35.584Z,5.72
2022-11-20T11:53:26.196Z,4.80
2022-11-20T11:56:12.186Z,5.68
2022-11-20T11:58:52.483Z,4.95
2022-11-20T12:01:43.098Z,5.57
2022-11-20T12:04:46.113Z,5.07
2022-11-20T12:07:46.424Z,5.13
2022-11-20T12:10:29.486Z,5.07
2022-11-20T12:13:06.616Z,5.28
2022-11-20T12:15:37.164Z,5.53
2022-11-20T12:18:16.065Z,5.68
2022-11-20T12:20:55.902Z,5.75
2022-11-20T12:23:36.503Z,5.30
2022-11-20T12:26:15.715Z,5.90
2022-11-20T12:29:03.598Z,6.82
2022-11-20T12:31:38.618Z,5.95
2022-11-20T12:34:32.538Z,6.28
2022-11-20T12:37:53.860Z,5.93
2022-11-20T12:40:56.121Z,5.75
2022-11-20T12:44:06.583Z,6.13
2022-11-20T12:47:16.374Z,6.93
2022-11-20T12:50:19.692Z,7.28
2022-11-20T12:52:58.721Z,7.97
2022-11-20T12:55:55.338Z,7.40
2022-11-20T12:59:00.739Z,7.10
2022-11-20T13:01:49.895Z,6.85
2022-11-20T13:04:55.656Z,6.55
2022-11-20T13:07:27.008Z,7.07
2022-11-20T13:09:57.132Z,6.78
2022-11-20T13:12:34.729Z,7.88
2022-11-20T13:15:11.309Z,6.93
2022-11-20T13:17:45.718Z,6.57
2022-11-20T13:20:20.474Z,8.27
2022-11-20T13:22:59.190Z,8.73
2022-11-20T13:25:39.793Z,8.43
2022-11-20T13:28:11.456Z,7.68
2022-11-20T13:30:52.678Z,7.50
2022-11-20T13:33:39.148Z,8.48
2022-11-20T13:36:09.708Z,8.07
2022-11-20T13:38:51.032Z,7.85
2022-11-20T13:41:30.350Z,7.43
2022-11-20T13:44:27.177Z,7.70
2022-11-20T13:46:56.238Z,10.27
2022-11-20T13:49:45.181Z,11.23
2022-11-20T13:52:32.886Z,11.02
2022-11-20T13:55:07.862Z,8.68
2022-11-20T13:57:39.532Z,8.07
2022-11-20T14:00:25.845Z,8.23
2022-11-20T14:03:25.003Z,7.97
2022-11-20T14:06:16.989Z,11.80
2022-11-20T14:08:51.716Z,13.35
2022-11-20T14:11:26.444Z,10.15
2022-11-20T14:14:03.124Z,10.15
2022-11-20T14:16:37.952Z,9.63
2022-11-20T14:19:30.854Z,9.85
2022-11-20T14:22:20.796Z,9.88
2022-11-20T14:24:51.834Z,9.65
2022-11-20T14:27:23.691Z,16.98
2022-11-20T14:29:53.824Z,17.45
2022-11-20T14:32:28.537Z,11.90
2022-11-20T14:35:00.932Z,11.50
2022-11-20T14:37:35.747Z,11.80
2022-11-20T14:40:04.929Z,11.60
2022-11-20T14:42:33.962Z,10.27
2022-11-20T14:45:03.484Z,10.35
2022-11-20T14:47:33.970Z,10.68
2022-11-20T14:50:09.706Z,9.95
2022-11-20T14:52:39.005Z,9.88
2022-11-20T14:55:08.291Z,10.70
2022-11-20T14:57:38.763Z,10.98
2022-11-20T15:00:07.992Z,9.18
2022-11-20T15:02:37.301Z,8.60
2022-11-20T15:05:06.642Z,8.02
2022-11-20T15:07:39.473Z,7.82
2022-11-20T15:10:14.608Z,8.20
2022-11-20T15:12:53.354Z,7.47
2022-11-20T15:15:29.869Z,7.57
2022-11-20T15:17:59.039Z,7.47
2022-11-20T15:20:32.682Z,9.30
2022-11-20T15:23:01.610Z,7.65
2022-11-20T15:25:30.916Z,7.40
2022-11-20T15:28:00.244Z,8.68
2022-11-20T15:30:29.119Z,8.50
2022-11-20T15:32:58.094Z,7.88
2022-11-20T15:35:27.032Z,9.35
2022-11-20T15:37:55.883Z,9.15
2022-11-20T15:40:24.804Z,7.70
2022-11-20T15:43:11.361Z,7.68
2022-11-20T15:45:52.077Z,7.38
2022-11-20T15:48:25.022Z,7.93
2022-11-20T15:51:09.545Z,8.32
2022-11-20T15:53:42.897Z,7.22
2022-11-20T15:56:15.520Z,8.17
2022-11-20T15:58:45.020Z,7.85
2022-11-20T16:01:21.936Z,7.72
2022-11-20T16:03:51.621Z,8.27
2022-11-20T16:06:20.565Z,8.20
2022-11-20T16:08:49.557Z,8.20
2022-11-20T16:11:19.611Z,8.50
2022-11-20T16:14:06.694Z,8.30
2022-11-20T16:16:38.001Z,8.02
2022-11-20T16:19:07.429Z,7.28
2022-11-20T16:21:36.922Z,8.20
2022-11-20T16:24:08.675Z,7.25
2022-11-20T16:26:38.102Z,8.07
2022-11-20T16:29:07.903Z,8.77
2022-11-20T16:31:36.955Z,8.65
2022-11-20T16:34:12.270Z,7.78
2022-11-20T16:36:48.001Z,8.10
2022-11-20T16:39:21.964Z,9.40
2022-11-20T16:41:52.584Z,7.90
2022-11-20T16:44:21.862Z,8.45
2022-11-20T16:46:51.132Z,8.57
2022-11-20T16:49:20.353Z,7.93
2022-11-20T16:51:49.244Z,8.60
2022-11-20T16:54:21.204Z,8.77
2022-11-20T16:56:52.141Z,8.52
2022-11-20T16:59:21.205Z,8.63
2022-11-20T17:01:53.331Z,9.55
2022-11-20T17:04:22.607Z,8.60
2022-11-20T17:06:51.911Z,8.95
2022-11-20T17:09:20.830Z,8.60
2022-11-20T17:11:51.023Z,7.43
2022-11-20T17:14:19.991Z,7.40
2022-11-20T17:16:49.133Z,7.88
2022-11-20T17:19:18.021Z,9.30
2022-11-20T17:21:46.894Z,8.73
2022-11-20T17:24:17.248Z,8.70
2022-11-20T17:26:46.877Z,9.02
2022-11-20T17:29:17.535Z,9.48
2022-11-20T17:31:47.478Z,10.15
2022-11-20T17:34:17.602Z,9.07
2022-11-20T17:36:47.638Z,8.55
2022-11-20T17:39:18.695Z,10.13
2022-11-20T17:42:07.714Z,9.23
2022-11-20T17:44:36.708Z,9.27
2022-11-20T17:47:05.999Z,9.40
2022-11-20T17:49:34.965Z,9.95
2022-11-20T17:52:03.898Z,9.23
2022-11-20T17:54:32.840Z,8.73
2022-11-20T17:57:20.157Z,8.57
2022-11-20T17:59:49.169Z,8.73
2022-11-20T18:02:18.077Z,7.75
2022-11-20T18:04:47.032Z,8.48
2022-11-20T18:07:15.949Z,8.52
2022-11-20T18:09:44.914Z,7.85
2022-11-20T18:12:13.830Z,8.27
2022-11-20T18:14:44.720Z,7.80
2022-11-20T18:17:15.845Z,8.70
2022-11-20T18:20:01.128Z,9.40
2022-11-20T18:22:36.233Z,8.27
2022-11-20T18:25:06.126Z,9.10
2022-11-20T18:27:35.040Z,8.75
2022-11-20T18:30:04.021Z,8.55
2022-11-20T18:32:33.358Z,8.55
2022-11-20T18:35:02.900Z,8.45
2022-11-20T18:37:33.699Z,8.18
2022-11-20T18:40:02.598Z,9.30
2022-11-20T18:42:49.773Z,10.70
2022-11-20T18:45:18.713Z,10.18
2022-11-20T18:47:47.605Z,9.40
2022-11-20T18:50:16.534Z,9.30
2022-11-20T18:52:49.059Z,9.35
2022-11-20T18:55:19.144Z,10.35
2022-11-20T18:57:48.007Z,9.45
2022-11-20T19:00:18.507Z,10.52
2022-11-20T19:02:47.849Z,10.02
2022-11-20T19:05:17.037Z,10.07
2022-11-20T19:07:45.977Z,10.23
2022-11-20T19:10:14.993Z,11.00
2022-11-20T19:12:43.859Z,11.82
2022-11-20T19:15:13.154Z,11.02
2022-11-20T19:17:42.081Z,10.68
2022-11-20T19:20:11.381Z,10.00
2022-11-20T19:22:40.396Z,9.68
2022-11-20T19:25:09.808Z,10.43
2022-11-20T19:27:38.703Z,9.55
2022-11-20T19:30:08.160Z,9.30
2022-11-20T19:32:37.123Z,9.82
2022-11-20T19:35:06.389Z,10.20
2022-11-20T19:37:36.731Z,9.10
2022-11-20T19:40:06.450Z,10.50
2022-11-20T19:42:35.358Z,10.15
2022-11-20T19:45:04.561Z,10.88
2022-11-20T19:48:00.997Z,9.65
2022-11-20T19:50:22.615Z,9.93
2022-11-20T19:52:55.839Z,9.40
2022-11-20T19:55:27.938Z,10.10
2022-11-20T19:57:57.594Z,8.50
2022-11-20T20:00:31.262Z,9.02
2022-11-20T20:03:01.947Z,8.02
2022-11-20T20:05:31.009Z,9.05
2022-11-20T20:07:59.938Z,9.20
2022-11-20T20:10:30.215Z,9.70
2022-11-20T20:12:59.285Z,10.23
2022-11-20T20:15:28.550Z,11.20
2022-11-20T20:17:57.535Z,9.98
2022-11-20T20:20:27.113Z,8.40
2022-11-20T20:22:55.980Z,8.93
2022-11-20T20:25:24.820Z,9.70
2022-11-20T20:27:55.093Z,9.30
2022-11-20T20:30:24.025Z,10.43
2022-11-20T20:32:56.324Z,8.85
2022-11-20T20:35:25.656Z,8.60
2022-11-20T20:37:54.632Z,9.52
2022-11-20T20:40:23.623Z,8.05
2022-11-20T20:42:52.613Z,7.93
2022-11-20T20:45:21.571Z,7.55
2022-11-20T20:47:50.416Z,7.25
2022-11-20T20:50:19.731Z,7.47
2022-11-20T20:52:48.852Z,7.60
2022-11-20T20:55:17.767Z,7.55
2022-11-20T20:57:46.747Z,7.65
2022-11-20T21:00:15.975Z,7.00
2022-11-20T21:02:44.892Z,6.78
2022-11-20T21:05:13.863Z,6.80
2022-11-20T21:08:02.574Z,8.45
2022-11-20T21:10:32.389Z,7.65
2022-11-20T21:13:01.301Z,8.10
2022-11-20T21:15:30.236Z,7.78
2022-11-20T21:17:59.127Z,8.50
2022-11-20T21:20:46.367Z,9.60
2022-11-20T21:23:15.589Z,10.43
2022-11-20T21:25:44.615Z,10.43
2022-11-20T21:28:18.026Z,9.20
2022-11-20T21:30:47.824Z,9.80
2022-11-20T21:33:16.835Z,9.63
2022-11-20T21:35:45.853Z,10.27
2022-11-20T21:38:14.711Z,11.23
2022-11-20T21:40:43.616Z,9.30
2022-11-20T21:43:12.860Z,11.77
2022-11-20T21:45:41.815Z,11.60
2022-11-20T21:48:10.691Z,14.65
2022-11-20T21:50:39.604Z,11.20
2022-11-20T21:53:08.468Z,10.95
2022-11-20T21:55:37.394Z,10.75
2022-11-20T21:58:06.367Z,10.77
2022-11-20T22:00:35.309Z,10.80
2022-11-20T22:03:04.200Z,13.68
2022-11-20T22:05:33.077Z,11.32
2022-11-20T22:08:01.911Z,10.65
2022-11-20T22:10:30.947Z,10.57
2022-11-20T22:13:19.771Z,10.95
2022-11-20T22:16:00.835Z,10.07
2022-11-20T22:18:30.159Z,11.00
2022-11-20T22:20:59.186Z,9.75
2022-11-20T22:23:28.066Z,12.55
2022-11-20T22:25:56.990Z,11.05
2022-11-20T22:28:25.942Z,10.10
2022-11-20T22:30:58.184Z,11.32
2022-11-20T22:33:28.264Z,12.90
2022-11-20T22:36:24.453Z,10.95
2022-11-20T22:38:53.980Z,10.75
2022-11-20T22:41:28.622Z,11.88
2022-11-20T22:43:59.768Z,10.70
2022-11-20T22:46:30.727Z,11.48
2022-11-20T22:49:04.738Z,11.07
2022-11-20T22:54:06.964Z,10.10
2022-11-20T22:56:36.290Z,12.60
2022-11-20T22:59:05.491Z,12.45
2022-11-20T23:01:36.485Z,14.63
2022-11-20T23:04:08.007Z,15.15
2022-11-20T23:06:37.059Z,14.50
2022-11-20T23:09:08.726Z,16.58
2022-11-20T23:11:38.106Z,13.43
2022-11-20T23:14:12.409Z,12.23
2022-11-20T23:16:41.656Z,13.05
2022-11-20T23:19:13.372Z,12.32
2022-11-20T23:21:43.754Z,12.05
2022-11-20T23:24:13.072Z,14.02
2022-11-20T23:26:43.068Z,13.07
2022-11-20T23:29:12.138Z,11.95
2022-11-20T23:31:41.109Z,14.13
2022-11-20T23:34:10.399Z,13.23
2022-11-20T23:36:39.345Z,14.50
2022-11-20T23:39:09.720Z,13.30
2022-11-20T23:41:38.553Z,12.40
2022-11-20T23:44:07.453Z,13.90
2022-11-20T23:46:36.378Z,14.73
2022-11-20T23:49:05.490Z,13.38
2022-11-20T23:51:34.561Z,14.27
2022-11-20T23:54:04.877Z,16.23
2022-11-20T23:56:33.957Z,15.00
2022-11-20T23:59:02.916Z,15.43
